createdAt,value
2017-08-10T00:00:11.447Z,0
2017-08-10T00:01:12.168Z,0
2017-08-10T00:02:12.911Z,0
2017-08-10T00:03:13.637Z,0
2017-08-10T00:04:14.363Z,0
2017-08-10T00:05:15.110Z,0
2017-08-10T00:06:15.853Z,0
2017-08-10T00:07:16.577Z,0
2017-08-10T00:08:17.300Z,0
2017-08-10T00:09:18.027Z,0
2017-08-10T00:10:18.741Z,0
2017-08-10T00:11:19.487Z,0
2017-08-10T00:12:20.209Z,0
2017-08-10T00:13:20.932Z,0
2017-08-10T00:14:21.659Z,0
2017-08-10T00:15:22.378Z,0
2017-08-10T00:16:23.105Z,0
2017-08-10T00:17:23.827Z,0
2017-08-10T00:18:24.549Z,0
2017-08-10T00:19:25.276Z,0
2017-08-10T00:20:25.998Z,0
2017-08-10T00:21:26.719Z,0
2017-08-10T00:22:27.439Z,0
2017-08-10T00:23:28.165Z,0
2017-08-10T00:24:28.882Z,0
2017-08-10T00:25:29.633Z,0
2017-08-10T00:26:30.356Z,0
2017-08-10T00:27:31.081Z,0
2017-08-10T00:28:31.807Z,0
2017-08-10T00:29:32.527Z,0
2017-08-10T00:30:33.255Z,0
2017-08-10T00:31:33.999Z,0
2017-08-10T00:32:34.721Z,0
2017-08-10T00:33:35.442Z,0
2017-08-10T00:34:36.169Z,0
2017-08-10T00:35:36.890Z,0
2017-08-10T00:36:37.610Z,0
2017-08-10T00:37:38.334Z,0
2017-08-10T00:38:39.055Z,0
2017-08-10T00:39:39.811Z,0
2017-08-10T00:40:40.553Z,0
2017-08-10T00:41:41.300Z,0
2017-08-10T00:42:42.058Z,0
2017-08-10T00:43:42.818Z,0
2017-08-10T00:44:43.533Z,0
2017-08-10T00:45:44.256Z,0
2017-08-10T00:46:44.982Z,0
2017-08-10T00:47:45.704Z,0
2017-08-10T00:48:46.425Z,0
2017-08-10T00:49:47.173Z,0
2017-08-10T00:50:47.896Z,0
2017-08-10T00:51:48.622Z,0
2017-08-10T00:52:49.344Z,0
2017-08-10T00:53:50.088Z,0
2017-08-10T00:54:50.819Z,0
2017-08-10T00:55:51.569Z,0
2017-08-10T00:56:52.290Z,0
2017-08-10T00:57:53.010Z,0
2017-08-10T00:58:53.733Z,0
2017-08-10T00:59:54.486Z,0
2017-08-10T01:00:55.207Z,0
2017-08-10T01:01:55.956Z,0
2017-08-10T01:02:56.679Z,0
2017-08-10T01:03:57.404Z,0
2017-08-10T01:04:58.125Z,0
2017-08-10T01:05:58.850Z,0
2017-08-10T01:06:59.568Z,0
2017-08-10T01:08:00.318Z,0
2017-08-10T01:09:01.043Z,0
2017-08-10T01:10:01.764Z,0
2017-08-10T01:11:02.484Z,0
2017-08-10T01:12:03.234Z,0
2017-08-10T01:13:03.960Z,0
2017-08-10T01:14:04.682Z,0
2017-08-10T01:15:05.405Z,0
2017-08-10T01:16:06.126Z,0
2017-08-10T01:17:06.850Z,0
2017-08-10T01:18:07.597Z,0
2017-08-10T01:19:08.348Z,0
2017-08-10T01:20:09.097Z,0
2017-08-10T01:21:09.820Z,0
2017-08-10T01:22:10.548Z,0
2017-08-10T01:23:11.271Z,0
2017-08-10T01:24:12.016Z,0
2017-08-10T01:25:12.767Z,0
2017-08-10T03:34:33.126Z,0
2017-08-10T03:35:33.849Z,0
2017-08-10T03:36:34.570Z,0
2017-08-10T03:37:35.289Z,0
2017-08-10T03:38:36.014Z,0
2017-08-10T03:39:36.737Z,0
2017-08-10T03:40:37.483Z,0
2017-08-10T03:41:38.204Z,0
2017-08-10T03:42:38.925Z,4
2017-08-10T03:43:39.641Z,4
2017-08-10T03:44:40.381Z,4
2017-08-10T03:45:41.106Z,0
2017-08-10T03:46:41.829Z,4
2017-08-10T03:47:42.575Z,4
2017-08-10T03:48:43.294Z,4
2017-08-10T03:49:44.015Z,4
2017-08-10T03:50:44.737Z,8
2017-08-10T03:51:45.456Z,8
2017-08-10T03:52:46.178Z,12
2017-08-10T03:53:46.905Z,12
2017-08-10T03:54:47.624Z,8
2017-08-10T03:55:48.365Z,16
2017-08-10T03:56:49.087Z,16
2017-08-10T03:57:49.810Z,20
2017-08-10T03:58:50.533Z,24
2017-08-10T03:59:51.274Z,24
2017-08-10T04:00:51.993Z,32
2017-08-10T04:01:52.719Z,36
2017-08-10T04:02:53.462Z,40
2017-08-10T04:03:54.186Z,48
2017-08-10T04:04:54.907Z,60
2017-08-10T04:05:55.625Z,72
2017-08-10T04:06:56.350Z,80
2017-08-10T04:07:57.096Z,92
2017-08-10T04:08:57.819Z,100
2017-08-10T04:09:58.542Z,112
2017-08-10T04:10:59.294Z,124
2017-08-10T04:12:00.011Z,132
2017-08-10T04:13:00.736Z,144
2017-08-10T04:14:01.461Z,152
2017-08-10T04:15:02.180Z,160
2017-08-10T04:16:02.905Z,168
2017-08-10T04:17:03.633Z,176
2017-08-10T04:18:04.374Z,176
2017-08-10T04:19:05.101Z,180
2017-08-10T04:20:05.824Z,188
2017-08-10T04:21:06.548Z,188
2017-08-10T04:22:07.273Z,188
2017-08-10T04:23:07.996Z,188
2017-08-10T04:24:08.719Z,196
2017-08-10T04:25:09.465Z,204
2017-08-10T04:26:10.192Z,220
2017-08-10T04:27:10.912Z,236
2017-08-10T04:28:11.634Z,264
2017-08-10T04:29:12.363Z,296
2017-08-10T04:30:13.088Z,328
2017-08-10T04:31:13.815Z,348
2017-08-10T04:32:14.535Z,352
2017-08-10T04:33:15.260Z,344
2017-08-10T04:34:15.987Z,328
2017-08-10T04:35:16.715Z,324
2017-08-10T04:36:17.434Z,320
2017-08-10T04:37:18.158Z,332
2017-08-10T04:38:18.885Z,344
2017-08-10T04:39:19.613Z,360
2017-08-10T04:40:20.339Z,380
2017-08-10T04:41:21.087Z,412
2017-08-10T04:42:21.808Z,440
2017-08-10T04:43:22.536Z,456
2017-08-10T04:44:23.262Z,460
2017-08-10T04:45:23.982Z,464
2017-08-10T04:46:24.709Z,464
2017-08-10T04:47:25.432Z,476
2017-08-10T04:48:26.158Z,496
2017-08-10T04:49:26.906Z,524
2017-08-10T04:50:27.630Z,540
2017-08-10T04:51:28.356Z,564
2017-08-10T04:52:29.079Z,592
2017-08-10T04:53:29.804Z,628
2017-08-10T04:54:30.525Z,660
2017-08-10T04:55:31.252Z,680
2017-08-10T04:56:32.001Z,688
2017-08-10T04:57:32.748Z,708
2017-08-10T04:58:33.471Z,756
2017-08-10T04:59:34.218Z,836
2017-08-10T05:00:34.945Z,924
2017-08-10T05:01:35.668Z,988
2017-08-10T05:02:36.391Z,1020
2017-08-10T05:03:37.115Z,1028
2017-08-10T05:04:37.842Z,1020
2017-08-10T05:05:38.589Z,1020
2017-08-10T05:06:39.313Z,1016
2017-08-10T05:07:40.043Z,1000
2017-08-10T05:08:40.769Z,992
2017-08-10T05:09:41.496Z,1000
2017-08-10T05:10:42.222Z,1016
2017-08-10T05:11:42.945Z,1044
2017-08-10T05:12:43.694Z,1084
2017-08-10T05:13:44.422Z,1168
2017-08-10T05:14:45.144Z,1284
2017-08-10T05:15:45.873Z,1412
2017-08-10T05:16:46.593Z,1508
2017-08-10T05:17:47.324Z,1568
2017-08-10T05:18:48.048Z,1604
2017-08-10T05:19:48.776Z,1636
2017-08-10T05:20:49.525Z,1660
2017-08-10T05:21:50.246Z,1688
2017-08-10T05:22:50.970Z,1728
2017-08-10T05:23:51.744Z,1788
2017-08-10T05:24:52.471Z,1872
2017-08-10T05:25:53.216Z,1988
2017-08-10T05:26:53.963Z,2128
2017-08-10T05:27:54.689Z,2268
2017-08-10T05:28:55.422Z,2396
2017-08-10T05:29:56.138Z,2488
2017-08-10T05:30:56.867Z,2524
2017-08-10T05:31:57.589Z,2524
2017-08-10T05:32:58.319Z,2496
2017-08-10T05:33:59.047Z,2456
2017-08-10T05:34:59.771Z,2424
2017-08-10T05:36:00.501Z,2404
2017-08-10T05:37:01.224Z,2388
2017-08-10T05:38:01.955Z,2372
2017-08-10T05:39:02.683Z,2384
2017-08-10T05:40:03.409Z,2432
2017-08-10T05:41:04.133Z,2520
2017-08-10T05:42:04.862Z,2596
2017-08-10T05:43:05.585Z,2620
2017-08-10T05:44:06.312Z,2572
2017-08-10T05:45:07.039Z,2520
2017-08-10T05:46:07.762Z,2520
2017-08-10T05:47:08.488Z,2564
2017-08-10T05:48:09.326Z,2632
2017-08-10T05:49:10.056Z,2672
2017-08-10T05:50:10.779Z,2648
2017-08-10T05:51:11.516Z,2576
2017-08-10T05:52:12.239Z,2504
2017-08-10T05:53:12.960Z,2460
2017-08-10T05:54:13.733Z,2448
2017-08-10T05:55:14.483Z,2444
2017-08-10T05:56:15.215Z,2460
2017-08-10T05:57:15.939Z,2496
2017-08-10T05:58:16.669Z,2564
2017-08-10T05:59:17.394Z,2656
2017-08-10T06:00:18.142Z,2804
2017-08-10T06:01:18.870Z,2988
2017-08-10T06:02:19.600Z,3188
2017-08-10T06:03:20.351Z,3404
2017-08-10T06:04:21.081Z,3648
2017-08-10T06:05:21.851Z,3884
2017-08-10T06:06:22.575Z,4084
2017-08-10T06:07:23.307Z,4224
2017-08-10T06:08:24.059Z,4404
2017-08-10T06:09:24.787Z,4644
2017-08-10T06:10:25.563Z,4928
2017-08-10T06:11:26.287Z,5228
2017-08-10T06:12:27.036Z,5456
2017-08-10T06:13:27.764Z,5632
2017-08-10T06:14:28.492Z,5700
2017-08-10T06:15:29.231Z,5732
2017-08-10T06:16:29.980Z,5812
2017-08-10T06:17:30.703Z,5972
2017-08-10T06:18:31.452Z,6204
2017-08-10T06:19:32.183Z,6356
2017-08-10T06:20:32.908Z,6348
2017-08-10T06:21:33.687Z,6264
2017-08-10T06:22:34.415Z,6076
2017-08-10T06:23:35.146Z,5888
2017-08-10T06:24:35.875Z,5648
2017-08-10T06:25:36.627Z,5424
2017-08-10T06:26:37.426Z,5156
2017-08-10T06:27:38.156Z,4876
2017-08-10T06:28:38.892Z,4668
2017-08-10T06:29:39.613Z,4584
2017-08-10T06:30:40.338Z,4660
2017-08-10T06:31:41.067Z,4652
2017-08-10T06:32:41.797Z,4260
2017-08-10T06:33:42.523Z,3880
2017-08-10T06:34:43.278Z,3792
2017-08-10T06:35:44.001Z,3912
2017-08-10T06:36:44.730Z,4040
2017-08-10T06:37:45.559Z,4104
2017-08-10T06:38:46.292Z,4204
2017-08-10T06:39:47.021Z,4396
2017-08-10T06:40:47.747Z,4560
2017-08-10T06:41:48.476Z,4456
2017-08-10T06:42:49.220Z,4376
2017-08-10T06:43:49.993Z,4316
2017-08-10T06:44:50.719Z,4304
2017-08-10T06:45:51.449Z,4012
2017-08-10T06:46:52.201Z,3804
2017-08-10T06:47:52.931Z,3688
2017-08-10T06:48:53.767Z,3528
2017-08-10T06:49:54.495Z,3300
2017-08-10T06:50:55.220Z,3064
2017-08-10T06:51:55.946Z,2860
2017-08-10T06:52:56.673Z,2676
2017-08-10T06:53:57.437Z,2512
2017-08-10T06:54:58.169Z,2376
2017-08-10T06:55:58.895Z,2276
2017-08-10T06:56:59.652Z,2224
2017-08-10T06:58:00.369Z,2212
2017-08-10T06:59:01.098Z,2256
2017-08-10T07:00:01.823Z,2356
2017-08-10T07:01:02.553Z,2464
2017-08-10T07:02:03.280Z,2572
2017-08-10T07:03:04.010Z,2668
2017-08-10T07:04:04.760Z,2680
2017-08-10T07:05:05.506Z,2640
2017-08-10T07:06:06.230Z,2548
2017-08-10T07:07:06.959Z,2420
2017-08-10T07:08:07.684Z,2304
2017-08-10T07:09:08.423Z,2236
2017-08-10T07:10:09.165Z,2244
2017-08-10T07:11:09.889Z,2284
2017-08-10T07:12:10.618Z,2308
2017-08-10T07:13:11.345Z,2292
2017-08-10T07:14:12.093Z,2284
2017-08-10T07:15:12.842Z,2320
2017-08-10T07:16:13.614Z,2412
2017-08-10T07:17:14.370Z,2556
2017-08-10T07:18:15.094Z,2780
2017-08-10T07:19:15.823Z,3064
2017-08-10T07:20:16.553Z,3316
2017-08-10T07:21:17.279Z,3408
2017-08-10T07:22:18.004Z,3384
2017-08-10T07:23:18.756Z,3336
2017-08-10T07:24:19.485Z,3272
2017-08-10T07:25:20.212Z,3204
2017-08-10T07:26:20.942Z,3152
2017-08-10T07:27:21.832Z,3060
2017-08-10T07:28:22.557Z,2948
2017-08-10T07:29:23.309Z,2832
2017-08-10T07:30:24.035Z,2740
2017-08-10T07:31:24.765Z,2676
2017-08-10T07:32:25.509Z,2624
2017-08-10T07:33:26.293Z,2604
2017-08-10T07:34:27.019Z,2660
2017-08-10T07:35:27.850Z,2740
2017-08-10T07:36:28.575Z,2824
2017-08-10T07:37:29.303Z,2884
2017-08-10T07:38:30.053Z,2956
2017-08-10T07:39:30.782Z,3136
2017-08-10T07:40:31.507Z,3368
2017-08-10T07:41:32.236Z,3632
2017-08-10T07:42:32.969Z,3820
2017-08-10T07:43:33.744Z,3812
2017-08-10T07:44:34.470Z,3604
2017-08-10T07:45:35.204Z,3316
2017-08-10T07:46:35.952Z,3072
2017-08-10T07:47:36.703Z,2964
2017-08-10T07:48:37.423Z,2940
2017-08-10T07:49:38.300Z,2968
2017-08-10T07:50:39.029Z,3008
2017-08-10T07:51:39.755Z,3044
2017-08-10T07:52:40.482Z,3084
2017-08-10T07:53:41.233Z,3100
2017-08-10T07:54:41.990Z,3100
2017-08-10T07:55:42.716Z,3112
2017-08-10T07:56:43.444Z,3100
2017-08-10T07:57:44.191Z,3032
2017-08-10T07:58:44.919Z,2984
2017-08-10T07:59:45.644Z,3000
2017-08-10T08:00:46.372Z,3076
2017-08-10T08:01:47.100Z,3192
2017-08-10T08:02:47.831Z,3312
2017-08-10T08:03:48.559Z,3420
2017-08-10T08:04:49.312Z,3524
2017-08-10T08:05:50.041Z,3612
2017-08-10T08:06:50.770Z,3676
2017-08-10T08:07:51.494Z,3724
2017-08-10T08:08:52.224Z,3772
2017-08-10T08:09:52.950Z,3844
2017-08-10T08:10:53.681Z,3956
2017-08-10T08:11:54.410Z,4072
2017-08-10T08:12:55.140Z,4144
2017-08-10T08:13:55.864Z,4224
2017-08-10T08:14:56.594Z,4300
2017-08-10T08:15:57.374Z,4356
2017-08-10T08:16:58.103Z,4208
2017-08-10T08:17:58.831Z,3948
2017-08-10T08:18:59.559Z,3752
2017-08-10T08:20:00.288Z,3712
2017-08-10T08:21:01.020Z,3804
2017-08-10T08:22:01.751Z,3984
2017-08-10T08:23:02.480Z,4248
2017-08-10T08:24:03.209Z,4600
2017-08-10T08:25:03.962Z,5036
2017-08-10T08:26:04.715Z,5456
2017-08-10T08:27:05.444Z,5764
2017-08-10T08:28:06.174Z,6012
2017-08-10T08:29:06.927Z,6196
2017-08-10T08:30:07.657Z,6332
2017-08-10T08:31:08.388Z,6492
2017-08-10T08:32:09.255Z,6596
2017-08-10T08:33:10.004Z,6644
2017-08-10T08:34:10.756Z,6836
2017-08-10T08:35:11.484Z,6856
2017-08-10T08:36:12.210Z,6684
2017-08-10T08:37:12.986Z,6560
2017-08-10T08:38:13.710Z,6284
2017-08-10T08:39:14.442Z,5880
2017-08-10T08:40:15.170Z,5504
2017-08-10T08:41:15.924Z,5356
2017-08-10T08:42:16.651Z,5316
2017-08-10T08:43:17.385Z,5312
2017-08-10T08:44:18.112Z,5304
2017-08-10T08:45:18.840Z,5288
2017-08-10T08:46:19.595Z,5288
2017-08-10T08:47:20.325Z,5404
2017-08-10T08:48:21.076Z,5640
2017-08-10T08:49:21.806Z,5744
2017-08-10T08:50:22.536Z,5784
2017-08-10T08:51:23.290Z,5820
2017-08-10T08:52:24.045Z,5900
2017-08-10T08:53:24.921Z,6024
2017-08-10T08:54:25.653Z,6172
2017-08-10T08:55:26.379Z,6356
2017-08-10T08:56:27.113Z,6596
2017-08-10T08:57:27.838Z,6892
2017-08-10T08:58:28.566Z,7216
2017-08-10T08:59:29.333Z,7568
2017-08-10T09:00:30.084Z,7872
2017-08-10T09:01:30.816Z,8136
2017-08-10T09:02:31.543Z,8360
2017-08-10T09:03:32.272Z,8604
2017-08-10T09:04:33.046Z,8912
2017-08-10T09:05:33.795Z,9268
2017-08-10T09:06:34.543Z,9652
2017-08-10T09:07:35.277Z,9932
2017-08-10T09:08:36.030Z,9900
2017-08-10T09:09:36.785Z,9948
2017-08-10T09:10:37.516Z,10588
2017-08-10T09:11:38.250Z,11780
2017-08-10T09:12:39.004Z,13612
2017-08-10T09:13:39.736Z,15780
2017-08-10T09:14:40.498Z,18048
2017-08-10T09:15:41.231Z,19200
2017-08-10T09:16:41.962Z,20672
2017-08-10T09:17:42.714Z,25760
2017-08-10T09:18:43.451Z,21664
2017-08-10T09:19:44.186Z,17248
2017-08-10T09:20:44.966Z,14960
2017-08-10T09:21:45.723Z,15612
2017-08-10T09:22:46.456Z,19264
2017-08-10T09:23:47.192Z,31456
2017-08-10T09:24:47.931Z,44064
2017-08-10T09:25:48.763Z,41920
2017-08-10T09:26:49.521Z,54464
2017-08-10T09:27:50.283Z,77664
2017-08-10T09:28:51.028Z,42720
2017-08-10T09:29:51.771Z,45696
2017-08-10T09:30:52.515Z,30304
2017-08-10T09:31:53.276Z,29248
2017-08-10T09:32:54.042Z,26400
2017-08-10T09:33:54.782Z,23392
2017-08-10T09:34:55.544Z,21408
2017-08-10T09:35:56.309Z,20544
2017-08-10T09:36:57.048Z,20320
2017-08-10T09:37:57.782Z,19136
2017-08-10T09:38:58.519Z,19072
2017-08-10T09:39:59.256Z,18944
2017-08-10T09:40:59.987Z,18432
2017-08-10T09:42:00.732Z,17760
2017-08-10T09:43:01.467Z,17344
2017-08-10T09:44:02.214Z,17440
2017-08-10T09:45:02.969Z,18720
2017-08-10T09:46:03.721Z,20320
2017-08-10T09:47:04.470Z,22368
2017-08-10T09:48:05.211Z,24256
2017-08-10T09:49:05.951Z,27456
2017-08-10T09:50:06.711Z,30720
2017-08-10T09:51:07.457Z,33280
2017-08-10T09:52:08.196Z,35264
2017-08-10T09:53:08.933Z,37856
2017-08-10T09:54:09.666Z,38752
2017-08-10T09:55:10.422Z,33536
2017-08-10T09:56:11.183Z,35200
2017-08-10T09:57:11.927Z,33152
2017-08-10T09:58:12.658Z,36928
2017-08-10T09:59:13.395Z,43968
2017-08-10T10:00:14.134Z,84704
2017-08-10T10:01:14.875Z,91296
2017-08-10T10:02:15.621Z,52928
2017-08-10T10:03:16.361Z,45600
2017-08-10T10:04:17.106Z,53344
2017-08-10T10:05:17.845Z,86592
2017-08-10T10:06:18.604Z,87712
2017-08-10T10:07:19.367Z,73760
2017-08-10T10:08:20.113Z,85792
2017-08-10T10:09:20.851Z,89504
2017-08-10T10:10:21.590Z,85952
2017-08-10T10:11:22.333Z,68512
2017-08-10T10:12:23.073Z,41024
2017-08-10T10:13:23.810Z,35040
2017-08-10T10:14:24.552Z,24128
2017-08-10T10:15:25.296Z,21952
2017-08-10T10:16:26.053Z,20192
2017-08-10T10:17:26.794Z,20928
2017-08-10T10:18:27.550Z,20096
2017-08-10T10:19:28.291Z,18656
2017-08-10T10:20:29.034Z,19040
2017-08-10T10:21:29.793Z,21728
2017-08-10T10:22:30.553Z,21568
2017-08-10T10:23:31.289Z,23264
2017-08-10T10:24:32.027Z,25984
2017-08-10T10:25:32.764Z,28256
2017-08-10T10:26:33.501Z,28192
2017-08-10T10:27:34.263Z,27616
2017-08-10T10:28:34.997Z,27008
2017-08-10T10:29:35.735Z,27936
2017-08-10T10:30:36.472Z,29024
2017-08-10T10:31:37.207Z,31488
2017-08-10T10:32:37.946Z,34336
2017-08-10T10:33:38.686Z,42144
2017-08-10T10:34:39.427Z,37472
2017-08-10T10:35:40.189Z,39040
2017-08-10T10:36:40.930Z,34688
2017-08-10T10:37:41.671Z,36704
2017-08-10T10:38:42.409Z,44480
2017-08-10T10:39:43.152Z,49088
2017-08-10T10:40:43.889Z,52384
2017-08-10T10:41:44.632Z,70912
2017-08-10T10:42:45.372Z,32672
2017-08-10T10:43:46.138Z,25984
2017-08-10T10:44:46.878Z,22336
2017-08-10T10:45:47.614Z,19680
2017-08-10T10:46:48.376Z,18272
2017-08-10T10:47:49.116Z,16960
2017-08-10T10:48:49.854Z,15704
2017-08-10T10:49:50.621Z,15624
2017-08-10T10:50:51.363Z,16008
2017-08-10T10:51:52.097Z,16864
2017-08-10T10:52:52.852Z,19328
2017-08-10T10:53:53.591Z,19808
2017-08-10T10:54:54.329Z,17728
2017-08-10T10:55:55.064Z,15288
2017-08-10T10:56:55.807Z,14376
2017-08-10T10:57:56.542Z,13032
2017-08-10T10:58:57.302Z,12380
2017-08-10T10:59:58.038Z,11424
2017-08-10T11:00:58.777Z,10560
2017-08-10T11:01:59.514Z,10216
2017-08-10T11:03:00.253Z,10736
2017-08-10T11:04:00.995Z,11844
2017-08-10T11:05:01.732Z,11876
2017-08-10T11:06:02.469Z,10960
2017-08-10T11:07:03.204Z,10268
2017-08-10T11:08:03.938Z,9284
2017-08-10T11:09:04.696Z,8548
2017-08-10T11:10:05.432Z,8484
2017-08-10T11:11:06.188Z,8712
2017-08-10T11:12:06.945Z,9020
2017-08-10T11:13:07.683Z,9748
2017-08-10T11:14:08.436Z,9744
2017-08-10T11:15:09.171Z,8940
2017-08-10T11:16:09.906Z,8208
2017-08-10T11:17:10.641Z,7832
2017-08-10T11:18:11.380Z,8088
2017-08-10T11:19:12.116Z,9500
2017-08-10T11:20:12.848Z,10344
2017-08-10T11:21:13.589Z,9816
2017-08-10T11:22:14.326Z,8328
2017-08-10T11:23:15.057Z,7956
2017-08-10T11:24:15.812Z,8960
2017-08-10T11:25:16.574Z,9960
2017-08-10T11:26:17.309Z,10304
2017-08-10T11:27:18.048Z,10512
2017-08-10T11:28:18.786Z,10648
2017-08-10T11:29:19.527Z,10536
2017-08-10T11:30:20.263Z,10736
2017-08-10T11:31:21.000Z,12236
2017-08-10T11:32:21.734Z,14272
2017-08-10T11:33:22.471Z,17344
2017-08-10T11:34:23.209Z,19680
2017-08-10T11:35:23.947Z,19232
2017-08-10T11:36:24.686Z,19040
2017-08-10T11:37:25.422Z,18432
2017-08-10T11:38:26.163Z,20224
2017-08-10T11:39:26.897Z,24352
2017-08-10T11:40:27.636Z,20992
2017-08-10T11:41:28.377Z,18144
2017-08-10T11:42:29.141Z,15272
2017-08-10T11:43:29.879Z,13592
2017-08-10T11:44:30.624Z,12892
2017-08-10T11:45:31.352Z,12844
2017-08-10T11:46:32.114Z,13016
2017-08-10T11:47:32.852Z,12804
2017-08-10T11:48:33.590Z,12576
2017-08-10T11:49:34.353Z,12636
2017-08-10T11:50:35.087Z,13324
2017-08-10T11:51:35.850Z,13584
2017-08-10T11:52:36.587Z,13016
2017-08-10T11:53:37.330Z,11784
2017-08-10T11:54:38.068Z,10724
2017-08-10T11:55:38.807Z,10084
2017-08-10T11:56:39.543Z,9756
2017-08-10T11:57:40.283Z,9608
2017-08-10T11:58:41.043Z,9692
2017-08-10T11:59:41.783Z,9892
2017-08-10T12:00:42.518Z,9932
2017-08-10T12:01:43.259Z,10336
2017-08-10T12:02:44.021Z,10908
2017-08-10T12:03:44.758Z,11048
2017-08-10T12:04:45.500Z,10984
2017-08-10T12:05:46.263Z,10280
2017-08-10T12:06:47.001Z,9436
2017-08-10T12:07:47.735Z,10936
2017-08-10T12:08:48.472Z,12040
2017-08-10T12:09:49.212Z,12492
2017-08-10T12:10:49.948Z,12484
2017-08-10T12:11:50.713Z,12232
2017-08-10T12:12:51.453Z,12640
2017-08-10T12:13:52.216Z,13000
2017-08-10T12:14:52.952Z,12888
2017-08-10T12:15:53.694Z,13644
2017-08-10T12:16:54.458Z,15116
2017-08-10T12:17:55.194Z,15792
2017-08-10T12:18:55.932Z,15156
2017-08-10T12:19:56.671Z,13508
2017-08-10T12:20:57.415Z,11492
2017-08-10T12:21:58.173Z,11776
2017-08-10T12:22:58.908Z,13664
2017-08-10T12:23:59.648Z,17760
2017-08-10T12:25:00.385Z,21376
2017-08-10T12:26:01.124Z,20960
2017-08-10T12:27:01.862Z,19584
2017-08-10T12:28:02.627Z,21344
2017-08-10T12:29:03.366Z,27296
2017-08-10T12:30:04.125Z,26688
2017-08-10T12:31:04.865Z,25888
2017-08-10T12:32:05.607Z,23040
2017-08-10T12:33:06.350Z,20992
2017-08-10T12:34:07.086Z,19616
2017-08-10T12:35:07.827Z,15996
2017-08-10T12:36:08.571Z,14616
2017-08-10T12:37:09.312Z,12736
2017-08-10T12:38:10.049Z,11748
2017-08-10T12:39:10.811Z,11336
2017-08-10T12:40:11.548Z,10916
2017-08-10T12:41:12.285Z,10824
2017-08-10T12:42:13.028Z,11064
2017-08-10T12:43:13.761Z,12040
2017-08-10T12:44:14.493Z,13320
2017-08-10T12:45:15.232Z,13968
2017-08-10T12:46:15.987Z,14524
2017-08-10T12:47:16.720Z,15316
2017-08-10T12:48:17.458Z,17024
2017-08-10T12:49:18.192Z,20960
2017-08-10T12:50:18.931Z,30048
2017-08-10T12:51:19.662Z,49856
2017-08-10T12:52:20.401Z,33632
2017-08-10T12:53:21.139Z,33152
2017-08-10T12:54:21.879Z,29056
2017-08-10T12:55:22.617Z,25216
2017-08-10T12:56:23.355Z,25216
2017-08-10T12:57:24.114Z,24032
2017-08-10T12:58:24.853Z,14240
2017-08-10T12:59:25.584Z,12264
2017-08-10T13:00:26.322Z,12892
2017-08-10T13:01:27.061Z,12048
2017-08-10T13:02:27.797Z,10860
2017-08-10T13:03:28.537Z,10392
2017-08-10T13:04:29.296Z,10308
2017-08-10T13:05:30.031Z,9716
2017-08-10T13:06:30.764Z,8960
2017-08-10T13:07:31.501Z,8844
2017-08-10T13:08:32.236Z,8972
2017-08-10T13:09:32.970Z,9300
2017-08-10T13:10:33.703Z,9352
2017-08-10T13:11:34.439Z,8220
2017-08-10T13:12:35.174Z,7480
2017-08-10T13:13:35.930Z,7356
2017-08-10T13:14:36.666Z,7332
2017-08-10T13:15:37.407Z,7376
2017-08-10T13:16:38.165Z,7612
2017-08-10T13:17:38.892Z,7672
2017-08-10T13:18:39.626Z,7884
2017-08-10T13:19:40.386Z,8044
2017-08-10T13:20:41.111Z,8104
2017-08-10T13:21:41.868Z,8120
2017-08-10T13:22:42.601Z,8112
2017-08-10T13:23:43.343Z,8228
2017-08-10T13:24:44.099Z,8492
2017-08-10T13:25:44.835Z,8644
2017-08-10T13:26:45.571Z,8552
2017-08-10T13:27:46.301Z,8140
2017-08-10T13:28:47.039Z,7764
2017-08-10T13:29:47.772Z,7464
2017-08-10T13:30:48.512Z,7200
2017-08-10T13:31:49.249Z,7100
2017-08-10T13:32:49.986Z,6804
2017-08-10T13:33:50.722Z,6564
2017-08-10T13:34:51.455Z,6500
2017-08-10T13:35:52.190Z,6632
2017-08-10T13:36:52.930Z,6908
2017-08-10T13:37:53.688Z,7052
2017-08-10T13:38:54.419Z,6852
2017-08-10T13:39:55.152Z,6296
2017-08-10T13:40:55.886Z,5708
2017-08-10T13:41:56.623Z,5436
2017-08-10T13:42:57.358Z,5532
2017-08-10T13:43:58.091Z,5760
2017-08-10T13:44:58.825Z,5784
2017-08-10T13:45:59.557Z,5536
2017-08-10T13:47:00.293Z,5184
2017-08-10T13:48:01.035Z,4944
2017-08-10T13:49:01.790Z,4864
2017-08-10T13:50:02.521Z,4908
2017-08-10T13:51:03.274Z,5088
2017-08-10T13:52:04.008Z,5364
2017-08-10T13:53:04.752Z,5576
2017-08-10T13:54:05.476Z,5692
2017-08-10T13:55:06.206Z,5948
2017-08-10T13:56:06.962Z,6516
2017-08-10T13:57:07.696Z,7152
2017-08-10T13:58:08.430Z,7640
2017-08-10T13:59:09.167Z,8036
2017-08-10T14:00:09.899Z,8536
2017-08-10T14:01:10.640Z,9060
2017-08-10T14:02:11.376Z,9184
2017-08-10T14:03:12.123Z,8932
2017-08-10T14:04:12.856Z,8756
2017-08-10T14:05:13.591Z,8696
2017-08-10T14:06:14.328Z,8712
2017-08-10T14:07:15.059Z,7716
2017-08-10T14:08:15.818Z,6076
2017-08-10T14:09:16.554Z,5256
2017-08-10T14:10:17.283Z,5192
2017-08-10T14:11:18.020Z,5400
2017-08-10T14:12:18.756Z,5564
2017-08-10T14:13:19.511Z,5692
2017-08-10T14:14:20.250Z,5760
2017-08-10T14:15:20.984Z,5760
2017-08-10T14:16:21.715Z,5860
2017-08-10T14:17:22.470Z,6112
2017-08-10T14:18:23.202Z,6312
2017-08-10T14:19:23.939Z,6212
2017-08-10T14:20:24.696Z,5840
2017-08-10T14:21:25.449Z,5356
2017-08-10T14:22:26.180Z,4928
2017-08-10T14:23:26.913Z,4624
2017-08-10T14:24:27.652Z,4456
2017-08-10T14:25:28.384Z,4500
2017-08-10T14:26:29.119Z,4820
2017-08-10T14:27:29.851Z,4696
2017-08-10T14:28:30.583Z,4784
2017-08-10T14:29:31.321Z,5460
2017-08-10T14:30:32.057Z,5912
2017-08-10T14:31:32.789Z,6072
2017-08-10T14:32:33.521Z,6032
2017-08-10T14:33:34.252Z,5380
2017-08-10T14:34:34.988Z,4780
2017-08-10T14:35:35.721Z,4904
2017-08-10T14:36:36.452Z,5912
2017-08-10T14:37:37.186Z,6784
2017-08-10T14:38:37.918Z,7260
2017-08-10T14:39:38.653Z,7480
2017-08-10T14:40:39.386Z,7544
2017-08-10T14:41:40.121Z,7272
2017-08-10T14:42:40.852Z,6776
2017-08-10T14:43:41.586Z,6388
2017-08-10T14:44:42.324Z,6220
2017-08-10T14:45:43.050Z,6292
2017-08-10T14:46:43.784Z,6576
2017-08-10T14:47:44.516Z,7228
2017-08-10T14:48:45.275Z,8184
2017-08-10T14:49:46.009Z,8988
2017-08-10T14:50:46.750Z,8784
2017-08-10T14:51:47.499Z,7944
2017-08-10T14:52:48.233Z,6920
2017-08-10T14:53:48.964Z,6160
2017-08-10T14:54:49.715Z,5588
2017-08-10T14:55:50.449Z,5100
2017-08-10T14:56:51.204Z,4704
2017-08-10T14:57:51.941Z,4404
2017-08-10T14:58:52.676Z,4240
2017-08-10T14:59:53.410Z,4280
2017-08-10T15:00:54.145Z,4320
2017-08-10T15:01:54.881Z,4260
2017-08-10T15:02:55.642Z,4216
2017-08-10T15:03:56.382Z,4052
2017-08-10T15:04:57.132Z,3620
2017-08-10T15:05:57.885Z,3016
2017-08-10T15:06:58.618Z,2556
2017-08-10T15:07:59.350Z,2636
2017-08-10T15:09:00.082Z,3096
2017-08-10T15:10:00.813Z,3480
2017-08-10T15:11:01.547Z,3648
2017-08-10T15:12:02.303Z,3700
2017-08-10T15:13:03.060Z,3632
2017-08-10T15:14:03.790Z,3472
2017-08-10T15:15:04.551Z,3336
2017-08-10T15:16:05.308Z,3208
2017-08-10T15:17:06.040Z,2840
2017-08-10T15:18:06.770Z,2360
2017-08-10T15:19:07.521Z,2004
2017-08-10T15:20:08.252Z,1904
2017-08-10T15:21:08.999Z,2136
2017-08-10T15:22:09.732Z,2360
2017-08-10T15:23:10.462Z,2472
2017-08-10T15:24:11.198Z,2536
2017-08-10T15:25:11.930Z,2572
2017-08-10T15:26:12.660Z,2468
2017-08-10T15:27:13.393Z,2256
2017-08-10T15:28:14.118Z,2064
2017-08-10T15:29:14.850Z,1944
2017-08-10T15:30:15.602Z,1860
2017-08-10T15:31:16.333Z,1748
2017-08-10T15:32:17.085Z,1584
2017-08-10T15:33:17.830Z,1520
2017-08-10T15:34:18.562Z,1640
2017-08-10T15:35:19.289Z,1864
2017-08-10T15:36:20.021Z,2008
2017-08-10T15:37:20.748Z,2012
2017-08-10T15:38:21.478Z,1928
2017-08-10T15:39:22.206Z,1820
2017-08-10T15:40:22.957Z,1740
2017-08-10T15:41:23.690Z,1668
2017-08-10T15:42:24.414Z,1600